DAL1042 KLAX-KSFO
Flight info
| Callsign | DAL1042 |
|---|---|
| Flight time | 0h 53m |
| Altitude | 34000 |
| Route | SUMMR2 STOKD SERFR SERFR4 |
| Aircraft | B738/M-SDE2E3FGHIRWXY/LB1 |
Departure
| Time | 2026-04-21 04:14 |
|---|---|
| Airport | Los Angeles International Airport (KLAX) |
Arrival
| Time | 2026-04-21 05:08 |
|---|---|
| Airport | San Francisco International Airport (KSFO) |
| Time | Latitude | Longitude | Altitude | Speed | Heading |
|---|---|---|---|---|---|
| 2026-04-21 03:36 | 33.94677 | -118.40653 | 94 ft | 0 kts | 263° |
| 2026-04-21 04:00 | 33.94678 | -118.40641 | 95 ft | 4 kts | 263° |
| 2026-04-21 04:01 | 33.94681 | -118.40613 | 94 ft | 3 kts | 265° |
| 2026-04-21 04:01 | 33.94677 | -118.40592 | 94 ft | 4 kts | 343° |
| 2026-04-21 04:01 | 33.94652 | -118.40587 | 93 ft | 4 kts | 354° |
| 2026-04-21 04:01 | 33.94631 | -118.40584 | 96 ft | 0 kts | 354° |
| 2026-04-21 04:06 | 33.94633 | -118.40583 | 93 ft | 2 kts | 5° |
| 2026-04-21 04:06 | 33.94646 | -118.40575 | 92 ft | 0 kts | 26° |
| 2026-04-21 04:10 | 33.94654 | -118.40571 | 94 ft | 5 kts | 22° |
| 2026-04-21 04:10 | 33.94712 | -118.40574 | 96 ft | 10 kts | 348° |
| 2026-04-21 04:10 | 33.94776 | -118.40593 | 95 ft | 9 kts | 349° |
| 2026-04-21 04:10 | 33.94841 | -118.40603 | 98 ft | 9 kts | 2° |
| 2026-04-21 04:11 | 33.94869 | -118.40541 | 99 ft | 9 kts | 78° |
| 2026-04-21 04:11 | 33.94878 | -118.40468 | 99 ft | 9 kts | 84° |
| 2026-04-21 04:11 | 33.94885 | -118.40389 | 99 ft | 11 kts | 84° |
| 2026-04-21 04:11 | 33.94893 | -118.40296 | 99 ft | 11 kts | 83° |
| 2026-04-21 04:12 | 33.94903 | -118.40202 | 99 ft | 11 kts | 83° |
| 2026-04-21 04:12 | 33.94912 | -118.40111 | 98 ft | 12 kts | 82° |
| 2026-04-21 04:12 | 33.94923 | -118.40007 | 98 ft | 9 kts | 82° |
| 2026-04-21 04:12 | 33.94946 | -118.39932 | 100 ft | 10 kts | 49° |
| 2026-04-21 04:13 | 33.95005 | -118.39910 | 106 ft | 9 kts | 357° |
| 2026-04-21 04:13 | 33.95041 | -118.39958 | 108 ft | 8 kts | 270° |
| 2026-04-21 04:13 | 33.95040 | -118.39970 | 108 ft | 0 kts | 264° |
| 2026-04-21 04:14 | 33.95018 | -118.40198 | 107 ft | 62 kts | 263° |
| 2026-04-21 04:14 | 33.94937 | -118.40983 | 107 ft | 124 kts | 263° |
| 2026-04-21 04:14 | 33.94810 | -118.42199 | 235 ft | 161 kts | 263° |
| 2026-04-21 04:14 | 33.94677 | -118.43584 | 797 ft | 171 kts | 262° |
| 2026-04-21 04:15 | 33.94591 | -118.44937 | 1708 ft | 163 kts | 265° |
| 2026-04-21 04:15 | 33.94455 | -118.46452 | 1848 ft | 195 kts | 260° |
| 2026-04-21 04:15 | 33.94254 | -118.48131 | 2058 ft | 213 kts | 265° |
| 2026-04-21 04:15 | 33.94178 | -118.49960 | 2255 ft | 231 kts | 268° |
| 2026-04-21 04:16 | 33.94150 | -118.51947 | 2550 ft | 245 kts | 266° |
| 2026-04-21 04:16 | 33.94006 | -118.54062 | 2807 ft | 265 kts | 264° |
| 2026-04-21 04:16 | 33.93808 | -118.56371 | 3121 ft | 284 kts | 263° |
| 2026-04-21 04:16 | 33.93621 | -118.58714 | 4083 ft | 278 kts | 263° |
| 2026-04-21 04:17 | 33.93434 | -118.60997 | 5191 ft | 270 kts | 263° |
| 2026-04-21 04:17 | 33.93249 | -118.63246 | 6043 ft | 272 kts | 262° |
| 2026-04-21 04:17 | 33.93059 | -118.65544 | 6697 ft | 278 kts | 262° |
| 2026-04-21 04:17 | 33.92873 | -118.67872 | 7416 ft | 280 kts | 262° |
| 2026-04-21 04:18 | 33.92709 | -118.70221 | 8201 ft | 281 kts | 262° |
| 2026-04-21 04:18 | 33.92538 | -118.72581 | 8985 ft | 284 kts | 261° |
| 2026-04-21 04:18 | 33.92348 | -118.74971 | 9687 ft | 290 kts | 261° |
| 2026-04-21 04:18 | 33.92156 | -118.77401 | 10401 ft | 295 kts | 260° |
| 2026-04-21 04:19 | 33.91956 | -118.79956 | 10645 ft | 317 kts | 261° |
| 2026-04-21 04:19 | 33.91740 | -118.82645 | 11157 ft | 326 kts | 261° |
| 2026-04-21 04:19 | 33.91636 | -118.85391 | 11758 ft | 330 kts | 267° |
| 2026-04-21 04:19 | 33.91735 | -118.88162 | 11988 ft | 333 kts | 269° |
| 2026-04-21 04:20 | 33.91875 | -118.90968 | 12430 ft | 338 kts | 269° |
| 2026-04-21 04:20 | 33.91994 | -118.93779 | 13352 ft | 335 kts | 268° |
| 2026-04-21 04:20 | 33.92087 | -118.96537 | 14207 ft | 335 kts | 267° |
| 2026-04-21 04:20 | 33.92171 | -118.99350 | 14926 ft | 338 kts | 268° |
| 2026-04-21 04:21 | 33.92591 | -119.02176 | 15594 ft | 352 kts | 285° |
| 2026-04-21 04:21 | 33.93747 | -119.04832 | 16345 ft | 361 kts | 296° |
| 2026-04-21 04:21 | 33.95104 | -119.07405 | 17030 ft | 367 kts | 297° |
| 2026-04-21 04:21 | 33.96501 | -119.10001 | 17684 ft | 371 kts | 296° |
| 2026-04-21 04:22 | 33.97895 | -119.12639 | 18360 ft | 375 kts | 296° |
| 2026-04-21 04:22 | 33.99286 | -119.15317 | 18941 ft | 378 kts | 296° |
| 2026-04-21 04:22 | 34.00712 | -119.18007 | 19547 ft | 384 kts | 301° |
| 2026-04-21 04:22 | 34.02682 | -119.20276 | 20120 ft | 400 kts | 319° |
| 2026-04-21 04:23 | 34.04969 | -119.22205 | 20757 ft | 403 kts | 320° |
| 2026-04-21 04:23 | 34.07283 | -119.24142 | 21326 ft | 407 kts | 320° |
| 2026-04-21 04:23 | 34.08829 | -119.25441 | 21706 ft | 409 kts | 319° |
| 2026-04-21 04:23 | 34.11944 | -119.28079 | 22427 ft | 414 kts | 319° |
| 2026-04-21 04:24 | 34.14298 | -119.30090 | 22982 ft | 417 kts | 319° |
| 2026-04-21 04:24 | 34.15903 | -119.31467 | 23360 ft | 419 kts | 319° |
| 2026-04-21 04:24 | 34.18290 | -119.33521 | 23853 ft | 422 kts | 319° |
| 2026-04-21 04:24 | 34.20687 | -119.35587 | 24345 ft | 424 kts | 319° |
| 2026-04-21 04:25 | 34.23059 | -119.37634 | 24836 ft | 426 kts | 319° |
| 2026-04-21 04:25 | 34.25473 | -119.39719 | 25309 ft | 427 kts | 319° |
| 2026-04-21 04:25 | 34.27898 | -119.41815 | 25786 ft | 429 kts | 319° |
| 2026-04-21 04:25 | 34.30338 | -119.43924 | 26254 ft | 431 kts | 319° |
| 2026-04-21 04:26 | 34.32778 | -119.46035 | 26696 ft | 433 kts | 319° |
| 2026-04-21 04:26 | 34.35232 | -119.48160 | 27156 ft | 434 kts | 319° |
| 2026-04-21 04:26 | 34.37689 | -119.50288 | 27748 ft | 432 kts | 319° |
| 2026-04-21 04:26 | 34.40126 | -119.52398 | 28441 ft | 428 kts | 318° |
| 2026-04-21 04:27 | 34.42446 | -119.54605 | 29049 ft | 420 kts | 311° |
| 2026-04-21 04:27 | 34.44513 | -119.57050 | 29724 ft | 413 kts | 308° |
| 2026-04-21 04:27 | 34.46498 | -119.59558 | 30318 ft | 410 kts | 307° |
| 2026-04-21 04:27 | 34.48454 | -119.62070 | 30743 ft | 410 kts | 306° |
| 2026-04-21 04:28 | 34.50421 | -119.64587 | 31049 ft | 413 kts | 307° |
| 2026-04-21 04:28 | 34.52413 | -119.67106 | 31403 ft | 414 kts | 307° |
| 2026-04-21 04:28 | 34.54420 | -119.69615 | 31833 ft | 414 kts | 307° |
| 2026-04-21 04:28 | 34.56438 | -119.72123 | 32011 ft | 418 kts | 307° |
| 2026-04-21 04:29 | 34.58483 | -119.74650 | 32021 ft | 419 kts | 307° |
| 2026-04-21 04:29 | 34.62540 | -119.79660 | 32003 ft | 411 kts | 307° |
| 2026-04-21 04:30 | 34.66565 | -119.84640 | 32033 ft | 415 kts | 307° |
| 2026-04-21 04:30 | 34.70618 | -119.89666 | 32029 ft | 418 kts | 307° |
| 2026-04-21 04:31 | 34.74657 | -119.94693 | 32041 ft | 417 kts | 307° |
| 2026-04-21 04:31 | 34.78711 | -119.99725 | 32025 ft | 414 kts | 307° |
| 2026-04-21 04:32 | 34.82738 | -120.04734 | 31999 ft | 413 kts | 307° |
| 2026-04-21 04:32 | 34.86788 | -120.09680 | 31995 ft | 412 kts | 307° |
| 2026-04-21 04:33 | 34.90768 | -120.14690 | 32030 ft | 410 kts | 307° |
| 2026-04-21 04:33 | 34.94763 | -120.19617 | 31973 ft | 412 kts | 307° |
| 2026-04-21 04:34 | 34.98720 | -120.24643 | 32019 ft | 410 kts | 307° |
| 2026-04-21 04:34 | 35.02690 | -120.29641 | 31992 ft | 410 kts | 307° |
| 2026-04-21 04:35 | 35.06663 | -120.34646 | 32020 ft | 410 kts | 307° |
| 2026-04-21 04:35 | 35.10703 | -120.39590 | 32012 ft | 413 kts | 310° |
| 2026-04-21 04:36 | 35.14936 | -120.44304 | 32030 ft | 414 kts | 311° |
| 2026-04-21 04:36 | 35.19217 | -120.49022 | 32030 ft | 414 kts | 311° |
| 2026-04-21 04:37 | 35.23462 | -120.53762 | 32052 ft | 413 kts | 310° |
| 2026-04-21 04:37 | 35.27706 | -120.58529 | 32051 ft | 415 kts | 310° |
| 2026-04-21 04:38 | 35.31962 | -120.63325 | 32039 ft | 416 kts | 310° |
| 2026-04-21 04:38 | 35.36227 | -120.68130 | 32034 ft | 416 kts | 310° |
| 2026-04-21 04:39 | 35.40492 | -120.72943 | 32063 ft | 417 kts | 310° |
| 2026-04-21 04:39 | 35.44730 | -120.77730 | 32023 ft | 417 kts | 310° |
| 2026-04-21 04:40 | 35.48997 | -120.82538 | 32026 ft | 417 kts | 312° |
| 2026-04-21 04:40 | 35.53605 | -120.86932 | 32023 ft | 420 kts | 316° |
| 2026-04-21 04:41 | 35.58315 | -120.91169 | 32046 ft | 420 kts | 316° |
| 2026-04-21 04:41 | 35.62974 | -120.95423 | 32037 ft | 420 kts | 316° |
| 2026-04-21 04:42 | 35.67641 | -120.99746 | 32028 ft | 421 kts | 315° |
| 2026-04-21 04:42 | 35.72307 | -121.04096 | 32023 ft | 421 kts | 315° |
| 2026-04-21 04:43 | 35.76980 | -121.08456 | 31992 ft | 416 kts | 315° |
| 2026-04-21 04:43 | 35.79277 | -121.10600 | 31702 ft | 411 kts | 315° |
| 2026-04-21 04:43 | 35.81535 | -121.12708 | 31399 ft | 405 kts | 315° |
| 2026-04-21 04:43 | 35.83777 | -121.14806 | 31041 ft | 402 kts | 315° |
| 2026-04-21 04:44 | 35.85995 | -121.16883 | 30694 ft | 400 kts | 315° |
| 2026-04-21 04:44 | 35.88198 | -121.18949 | 30344 ft | 397 kts | 315° |
| 2026-04-21 04:44 | 35.90392 | -121.21008 | 29986 ft | 395 kts | 315° |
| 2026-04-21 04:44 | 35.92572 | -121.23056 | 29580 ft | 393 kts | 315° |
| 2026-04-21 04:45 | 35.94746 | -121.25096 | 29185 ft | 391 kts | 314° |
| 2026-04-21 04:45 | 35.96871 | -121.27091 | 28792 ft | 388 kts | 314° |
| 2026-04-21 04:45 | 35.99017 | -121.29109 | 28396 ft | 386 kts | 314° |
| 2026-04-21 04:45 | 36.01170 | -121.31136 | 28027 ft | 383 kts | 314° |
| 2026-04-21 04:46 | 36.03280 | -121.33121 | 27673 ft | 380 kts | 314° |
| 2026-04-21 04:46 | 36.05349 | -121.35076 | 27285 ft | 378 kts | 314° |
| 2026-04-21 04:46 | 36.07444 | -121.37024 | 26924 ft | 376 kts | 317° |
| 2026-04-21 04:46 | 36.09633 | -121.38823 | 26525 ft | 378 kts | 319° |
| 2026-04-21 04:47 | 36.11863 | -121.40543 | 26174 ft | 378 kts | 320° |
| 2026-04-21 04:47 | 36.14098 | -121.42239 | 25815 ft | 377 kts | 320° |
| 2026-04-21 04:47 | 36.16331 | -121.43941 | 25440 ft | 376 kts | 320° |
| 2026-04-21 04:47 | 36.18553 | -121.45650 | 25109 ft | 376 kts | 320° |
| 2026-04-21 04:48 | 36.20782 | -121.47368 | 24700 ft | 378 kts | 320° |
| 2026-04-21 04:48 | 36.23002 | -121.49091 | 24351 ft | 375 kts | 320° |
| 2026-04-21 04:48 | 36.25189 | -121.50823 | 23987 ft | 373 kts | 319° |
| 2026-04-21 04:48 | 36.27374 | -121.52571 | 23663 ft | 372 kts | 319° |
| 2026-04-21 04:49 | 36.29563 | -121.54274 | 23219 ft | 372 kts | 319° |
| 2026-04-21 04:49 | 36.31758 | -121.55969 | 22863 ft | 370 kts | 319° |
| 2026-04-21 04:49 | 36.33937 | -121.57664 | 22473 ft | 369 kts | 319° |
| 2026-04-21 04:49 | 36.36077 | -121.59340 | 22106 ft | 367 kts | 319° |
| 2026-04-21 04:50 | 36.38229 | -121.61030 | 21765 ft | 364 kts | 319° |
| 2026-04-21 04:50 | 36.40362 | -121.62707 | 21423 ft | 362 kts | 319° |
| 2026-04-21 04:50 | 36.42485 | -121.64374 | 21088 ft | 360 kts | 319° |
| 2026-04-21 04:50 | 36.44604 | -121.66039 | 20736 ft | 359 kts | 319° |
| 2026-04-21 04:51 | 36.46704 | -121.67696 | 20413 ft | 357 kts | 319° |
| 2026-04-21 04:51 | 36.48803 | -121.69349 | 20073 ft | 356 kts | 319° |
| 2026-04-21 04:51 | 36.50894 | -121.70992 | 19714 ft | 357 kts | 319° |
| 2026-04-21 04:51 | 36.52996 | -121.72654 | 19398 ft | 359 kts | 319° |
| 2026-04-21 04:52 | 36.55118 | -121.74342 | 18828 ft | 366 kts | 319° |
| 2026-04-21 04:52 | 36.57269 | -121.76049 | 18401 ft | 368 kts | 320° |
| 2026-04-21 04:52 | 36.59437 | -121.77763 | 17971 ft | 369 kts | 321° |
| 2026-04-21 04:52 | 36.61581 | -121.79450 | 17578 ft | 360 kts | 321° |
| 2026-04-21 04:53 | 36.63677 | -121.81102 | 17235 ft | 353 kts | 321° |
| 2026-04-21 04:53 | 36.65726 | -121.82726 | 16890 ft | 346 kts | 321° |
| 2026-04-21 04:53 | 36.67737 | -121.84317 | 16552 ft | 339 kts | 321° |
| 2026-04-21 04:53 | 36.69715 | -121.85888 | 16218 ft | 332 kts | 320° |
| 2026-04-21 04:54 | 36.71613 | -121.87401 | 15911 ft | 326 kts | 320° |
| 2026-04-21 04:54 | 36.73510 | -121.88905 | 15603 ft | 323 kts | 322° |
| 2026-04-21 04:54 | 36.75618 | -121.89958 | 15285 ft | 331 kts | 343° |
| 2026-04-21 04:54 | 36.77870 | -121.90566 | 15012 ft | 333 kts | 344° |
| 2026-04-21 04:55 | 36.80187 | -121.91175 | 14694 ft | 347 kts | 344° |
| 2026-04-21 04:55 | 36.82564 | -121.91808 | 14337 ft | 350 kts | 344° |
| 2026-04-21 04:55 | 36.84945 | -121.92452 | 13996 ft | 349 kts | 344° |
| 2026-04-21 04:55 | 36.87318 | -121.93104 | 13644 ft | 349 kts | 343° |
| 2026-04-21 04:56 | 36.89684 | -121.93761 | 13288 ft | 348 kts | 343° |
| 2026-04-21 04:56 | 36.92042 | -121.94421 | 12939 ft | 347 kts | 343° |
| 2026-04-21 04:56 | 36.94392 | -121.95081 | 12598 ft | 345 kts | 343° |
| 2026-04-21 04:56 | 36.96711 | -121.95811 | 12274 ft | 342 kts | 339° |
| 2026-04-21 04:57 | 36.98980 | -121.96681 | 11939 ft | 340 kts | 337° |
| 2026-04-21 04:57 | 37.01230 | -121.97590 | 11623 ft | 339 kts | 337° |
| 2026-04-21 04:57 | 37.03473 | -121.98498 | 11283 ft | 338 kts | 337° |
| 2026-04-21 04:57 | 37.05711 | -121.99400 | 10962 ft | 337 kts | 337° |
| 2026-04-21 04:58 | 37.07921 | -122.00275 | 10644 ft | 337 kts | 337° |
| 2026-04-21 04:58 | 37.10158 | -122.01153 | 10278 ft | 338 kts | 337° |
| 2026-04-21 04:58 | 37.12403 | -122.01973 | 10075 ft | 333 kts | 337° |
| 2026-04-21 04:58 | 37.14589 | -122.02842 | 9927 ft | 326 kts | 336° |
| 2026-04-21 04:59 | 37.16720 | -122.03702 | 9654 ft | 324 kts | 336° |
| 2026-04-21 04:59 | 37.18913 | -122.04532 | 9234 ft | 329 kts | 338° |
| 2026-04-21 04:59 | 37.21105 | -122.05386 | 8829 ft | 330 kts | 337° |
| 2026-04-21 04:59 | 37.23290 | -122.06223 | 8498 ft | 325 kts | 339° |
| 2026-04-21 05:00 | 37.25410 | -122.07080 | 8242 ft | 320 kts | 335° |
| 2026-04-21 05:00 | 37.27494 | -122.07957 | 7923 ft | 312 kts | 337° |
| 2026-04-21 05:00 | 37.31591 | -122.09523 | 7135 ft | 303 kts | 338° |
| 2026-04-21 05:01 | 37.33588 | -122.10337 | 6746 ft | 299 kts | 337° |
| 2026-04-21 05:01 | 37.35557 | -122.11124 | 6360 ft | 294 kts | 339° |
| 2026-04-21 05:01 | 37.37469 | -122.11874 | 5967 ft | 289 kts | 339° |
| 2026-04-21 05:01 | 37.39394 | -122.12560 | 5603 ft | 286 kts | 341° |
| 2026-04-21 05:02 | 37.41296 | -122.13202 | 5246 ft | 281 kts | 341° |
| 2026-04-21 05:02 | 37.43163 | -122.13834 | 4929 ft | 276 kts | 341° |
| 2026-04-21 05:02 | 37.45005 | -122.14463 | 4592 ft | 271 kts | 341° |
| 2026-04-21 05:02 | 37.46799 | -122.15055 | 4300 ft | 261 kts | 342° |
| 2026-04-21 05:03 | 37.48535 | -122.15629 | 3955 ft | 253 kts | 341° |
| 2026-04-21 05:03 | 37.50213 | -122.16179 | 3669 ft | 247 kts | 342° |
| 2026-04-21 05:03 | 37.51872 | -122.16727 | 3377 ft | 243 kts | 340° |
| 2026-04-21 05:03 | 37.53435 | -122.17381 | 3063 ft | 230 kts | 323° |
| 2026-04-21 05:04 | 37.54390 | -122.18798 | 2823 ft | 202 kts | 284° |
| 2026-04-21 05:04 | 37.54918 | -122.20359 | 2709 ft | 189 kts | 290° |
| 2026-04-21 05:04 | 37.55539 | -122.21795 | 2507 ft | 185 kts | 290° |
| 2026-04-21 05:04 | 37.56144 | -122.23208 | 2257 ft | 182 kts | 290° |
| 2026-04-21 05:05 | 37.56735 | -122.24601 | 2016 ft | 177 kts | 288° |
| 2026-04-21 05:05 | 37.57284 | -122.25943 | 1780 ft | 167 kts | 290° |
| 2026-04-21 05:05 | 37.57805 | -122.27196 | 1579 ft | 155 kts | 290° |
| 2026-04-21 05:05 | 37.58301 | -122.28390 | 1371 ft | 153 kts | 290° |
| 2026-04-21 05:06 | 37.58790 | -122.29563 | 1135 ft | 150 kts | 290° |
| 2026-04-21 05:06 | 37.59271 | -122.30719 | 944 ft | 147 kts | 292° |
| 2026-04-21 05:06 | 37.59753 | -122.31876 | 735 ft | 149 kts | 294° |
| 2026-04-21 05:06 | 37.60234 | -122.33024 | 564 ft | 149 kts | 296° |
| 2026-04-21 05:07 | 37.60716 | -122.34175 | 361 ft | 144 kts | 296° |
| 2026-04-21 05:07 | 37.61176 | -122.35247 | 189 ft | 136 kts | 295° |
| 2026-04-21 05:07 | 37.61600 | -122.36319 | 38 ft | 132 kts | 298° |
| 2026-04-21 05:07 | 37.61990 | -122.37238 | 22 ft | 88 kts | 298° |
| 2026-04-21 05:08 | 37.62202 | -122.37753 | 22 ft | 46 kts | 295° |
| 2026-04-21 05:08 | 37.62232 | -122.37962 | 21 ft | 20 kts | 266° |
| 2026-04-21 05:08 | 37.62226 | -122.38074 | 21 ft | 7 kts | 268° |
| 2026-04-21 05:08 | 37.62225 | -122.38108 | 21 ft | 1 kts | 268° |
| 2026-04-21 05:09 | 37.62225 | -122.38110 | 21 ft | 0 kts | 268° |
| 2026-04-21 05:09 | 37.62225 | -122.38122 | 21 ft | 2 kts | 266° |
| 2026-04-21 05:09 | 37.62217 | -122.38160 | 21 ft | 7 kts | 246° |
| 2026-04-21 05:09 | 37.62172 | -122.38206 | 22 ft | 10 kts | 207° |
| 2026-04-21 05:10 | 37.62098 | -122.38254 | 21 ft | 13 kts | 207° |
| 2026-04-21 05:10 | 37.62025 | -122.38295 | 23 ft | 9 kts | 187° |
| 2026-04-21 05:10 | 37.61983 | -122.38247 | 21 ft | 8 kts | 133° |
| 2026-04-21 05:10 | 37.61927 | -122.38245 | 21 ft | 8 kts | 199° |
| 2026-04-21 05:11 | 37.61879 | -122.38280 | 23 ft | 8 kts | 220° |
| 2026-04-21 05:11 | 37.61869 | -122.38298 | 21 ft | 2 kts | 243° |
| 2026-04-21 05:11 | 37.61866 | -122.38306 | 22 ft | 0 kts | 251° |
| 2026-04-21 05:12 | 37.61866 | -122.38308 | 22 ft | 1 kts | 253° |
| 2026-04-21 05:12 | 37.61865 | -122.38318 | 21 ft | 1 kts | 266° |
| 2026-04-21 05:13 | 37.61868 | -122.38336 | 21 ft | 3 kts | 285° |
| 2026-04-21 05:13 | 37.61876 | -122.38360 | 21 ft | 3 kts | 295° |
| 2026-04-21 05:13 | 37.61882 | -122.38376 | 21 ft | 1 kts | 296° |
| 2026-04-21 05:13 | 37.61882 | -122.38377 | 21 ft | 0 kts | 296° |
| 2026-04-21 05:14 | 37.61884 | -122.38381 | 21 ft | 0 kts | 296° |
| 2026-04-21 05:15 | 37.61885 | -122.38384 | 21 ft | 1 kts | 296° |
| 2026-04-21 05:15 | 37.61886 | -122.38385 | 21 ft | 0 kts | 296° |